»·PEaware :: N648CR NONE-KBOI

N648CR :: NONE-KBOI

FLIGHT INFORMATION

Flight Status: Arrived
Operator: Privately registered:
United States
More flights under this callsign
Pilot: James D. (19799)
Aircraft: CIRRUS VISIONJET
(SF50)
More flights by this aircraft type
Origin: NONE
Destination: KBOI Boise Air Terminal/Gowen
United States
More flights between these airports :: More routes between these airports
Route: +
File this flight plan on PilotEdge
Remarks:
Altitude:
(Current/Filed)
14,500ft
Speed:
(Current/Filed)
0kts
Departed: 09-May-20 11:20 AM
Arrived: 09-May-20 12:05 PM
Distance/Time
Traveled:
Not Available
Distance/Time
To Go:
Arrived

Flight Plot

Page will automatically refresh every two minutes.


Map Options




Map Legend


Flown Route
Filed Route
Departure Airport
Arrival Airport
Navaid (VOR, NDB)
Fix

Horizontal Profiles

Position Reports

Time Latitude Longitude Heading Altitude Ground
Speed
09-May-20 11:18 41.664731 -112.276481 304 10469ft 252kts
09-May-20 11:19 41.704803 -112.354595 304 12070ft 257kts
09-May-20 11:20 41.745094 -112.433337 304 13672ft 255kts
09-May-20 11:21 41.785546 -112.512608 304 14527ft 268kts
09-May-20 11:22 41.828393 -112.596775 304 14527ft 277kts
09-May-20 11:23 41.872104 -112.682910 303 14527ft 280kts
09-May-20 11:24 41.916015 -112.769668 303 14527ft 282kts
09-May-20 11:25 41.960169 -112.857142 303 14537ft 282kts
09-May-20 11:26 42.004200 -112.944646 302 14542ft 284kts
09-May-20 11:27 42.048729 -113.033406 302 14539ft 288kts
09-May-20 11:28 42.093785 -113.123465 302 14538ft 292kts
09-May-20 11:29 42.138930 -113.213975 302 14535ft 293kts
09-May-20 11:30 42.184295 -113.305200 302 14535ft 293kts
09-May-20 11:31 42.229534 -113.396449 302 14535ft 293kts
09-May-20 11:32 42.274907 -113.488225 302 14509ft 294kts
09-May-20 11:33 42.320245 -113.580252 302 14472ft 294kts
09-May-20 11:34 42.365544 -113.672465 301 14472ft 294kts
09-May-20 11:35 42.410603 -113.764473 301 14472ft 293kts
09-May-20 11:36 42.455642 -113.856719 301 14472ft 293kts
09-May-20 11:37 42.500563 -113.949008 301 14472ft 293kts
09-May-20 11:38 42.545366 -114.041339 301 14471ft 293kts
09-May-20 11:39 42.590252 -114.134130 301 14468ft 293kts
09-May-20 11:40 42.634987 -114.226894 301 14464ft 293kts
09-May-20 11:41 42.679650 -114.319798 301 14463ft 293kts
09-May-20 11:42 42.724314 -114.412997 301 14463ft 293kts
09-May-20 11:43 42.768826 -114.506169 301 14463ft 293kts
09-May-20 11:44 42.813262 -114.599474 301 14463ft 293kts
09-May-20 11:45 42.857756 -114.693211 301 14464ft 293kts
09-May-20 11:46 42.901926 -114.786521 301 14464ft 293kts
09-May-20 11:47 42.945993 -114.879933 301 14464ft 291kts
09-May-20 11:48 42.989607 -114.972678 301 14463ft 288kts
09-May-20 11:49 43.032863 -115.064936 301 14453ft 288kts
09-May-20 11:50 43.076277 -115.157850 301 14443ft 292kts
09-May-20 11:51 43.120159 -115.251949 303 14100ft 298kts
09-May-20 11:52 43.164928 -115.348436 303 13210ft 301kts
09-May-20 11:53 43.208915 -115.443456 302 12232ft 290kts
09-May-20 11:54 43.251618 -115.536002 302 11231ft 286kts
09-May-20 11:55 43.293979 -115.628128 302 10233ft 285kts
09-May-20 11:56 43.336063 -115.719890 301 9227ft 280kts
09-May-20 11:57 43.377201 -115.809895 302 8222ft 276kts
09-May-20 11:58 43.417006 -115.897248 302 7213ft 264kts
09-May-20 11:59 43.455378 -115.981712 302 6212ft 257kts
09-May-20 12:00 43.479624 -116.069092 322 5376ft 244kts
09-May-20 12:01 43.533818 -116.101783 281 4531ft 224kts
09-May-20 12:02 43.545903 -116.167699 300 3735ft 112kts
09-May-20 12:03 43.557333 -116.199412 296 2921ft 81kts
09-May-20 12:04 43.563458 -116.216857 315 2852ft 13kts
09-May-20 12:05 43.564631 -116.217248 341 2852ft 2kts
09-May-20 12:06 43.566405 -116.222227 296 2848ft 25kts
09-May-20 12:07 43.568424 -116.226364 1 2842ft 4kts
09-May-20 12:08 43.568859 -116.226990 3 2841ft 1kts
09-May-20 12:09 43.568884 -116.226988 2 2841ft 0kts

Navigation Log

Ident Type
Flight plan parsing failed, navigation log unavailable